Xuwen, China
Current Conditions -  °F | °C
As of 5:00 PM on Thursday 23 Oct 2014 (Local Time) from ZJHK Reporting Station
Rain Showers Rain Showers  
Wind Chill: 75°   Ceiling: 1000
Heat Index: 75°   Visibility: 3mi
Dew Point: 75°   Wind: 7mph
Humidity: 100%   Direction: 120°ESE
Pressure: 29.91"   Gusts: NA
Location:  20.33°N, 110.15°E
Report Text: ZJHK 230900Z 12003MPS 090V150 5000 -SHRA BKN010SCT020TCUBKN026 24/24 Q1013 RESHRA NOSIG
Loading
Personal Weather Stations






























Interactive Weather Map
Tropical Storm Tracking
New forecast layout! Learn more

10-Day Weather Forecast

Advertisements
Track Severe Weather on mobile